sensor_id;sensor_type;location;lat;lon;timestamp;pressure;altitude;pressure_sealevel;temperature;humidity
56006;BME280;41888;44.696;10.522;2022-12-18T00:01:28;101648.28;;;6.13;100.00
56006;BME280;41888;44.696;10.522;2022-12-18T00:03:56;101662.63;;;6.10;100.00
56006;BME280;41888;44.696;10.522;2022-12-18T00:06:24;101680.56;;;6.07;100.00
56006;BME280;41888;44.696;10.522;2022-12-18T00:08:50;101672.91;;;6.04;100.00
56006;BME280;41888;44.696;10.522;2022-12-18T00:11:22;101672.25;;;6.02;100.00
56006;BME280;41888;44.696;10.522;2022-12-18T00:13:49;101676.97;;;5.98;100.00
56006;BME280;41888;44.696;10.522;2022-12-18T00:16:18;101668.91;;;6.00;100.00
56006;BME280;41888;44.696;10.522;2022-12-18T00:18:47;101675.56;;;6.04;100.00
56006;BME280;41888;44.696;10.522;2022-12-18T00:21:14;101688.38;;;5.99;100.00
56006;BME280;41888;44.696;10.522;2022-12-18T00:23:43;101694.53;;;5.89;100.00
56006;BME280;41888;44.696;10.522;2022-12-18T00:26:15;101692.72;;;5.90;100.00
56006;BME280;41888;44.696;10.522;2022-12-18T00:28:43;101695.38;;;5.90;100.00
56006;BME280;41888;44.696;10.522;2022-12-18T00:31:11;101693.25;;;5.93;100.00
56006;BME280;41888;44.696;10.522;2022-12-18T00:33:38;101688.94;;;5.92;100.00
56006;BME280;41888;44.696;10.522;2022-12-18T00:36:10;101699.38;;;5.94;100.00
56006;BME280;41888;44.696;10.522;2022-12-18T00:38:37;101693.56;;;5.90;100.00
56006;BME280;41888;44.696;10.522;2022-12-18T00:41:03;101690.78;;;5.92;100.00
56006;BME280;41888;44.696;10.522;2022-12-18T00:43:29;101689.91;;;6.01;100.00
56006;BME280;41888;44.696;10.522;2022-12-18T00:45:56;101701.22;;;6.21;100.00
56006;BME280;41888;44.696;10.522;2022-12-18T00:48:22;101699.03;;;6.16;100.00
56006;BME280;41888;44.696;10.522;2022-12-18T00:50:49;101702.38;;;6.18;100.00
56006;BME280;41888;44.696;10.522;2022-12-18T00:53:16;101701.97;;;6.13;100.00
56006;BME280;41888;44.696;10.522;2022-12-18T00:55:43;101703.47;;;6.16;100.00
56006;BME280;41888;44.696;10.522;2022-12-18T00:58:10;101691.75;;;6.28;100.00
56006;BME280;41888;44.696;10.522;2022-12-18T01:00:37;101684.41;;;6.22;100.00
56006;BME280;41888;44.696;10.522;2022-12-18T01:03:05;101683.06;;;6.08;100.00
56006;BME280;41888;44.696;10.522;2022-12-18T01:05:31;101687.53;;;5.98;100.00
56006;BME280;41888;44.696;10.522;2022-12-18T01:07:58;101691.75;;;5.91;100.00
56006;BME280;41888;44.696;10.522;2022-12-18T01:10:25;101697.16;;;5.89;100.00
56006;BME280;41888;44.696;10.522;2022-12-18T01:12:52;101691.88;;;5.89;100.00
56006;BME280;41888;44.696;10.522;2022-12-18T01:15:19;101692.28;;;5.85;100.00
56006;BME280;41888;44.696;10.522;2022-12-18T01:17:45;101696.03;;;5.82;100.00
56006;BME280;41888;44.696;10.522;2022-12-18T01:20:12;101690.91;;;5.81;100.00
56006;BME280;41888;44.696;10.522;2022-12-18T01:22:39;101700.34;;;5.83;100.00
56006;BME280;41888;44.696;10.522;2022-12-18T01:25:05;101694.66;;;5.88;100.00
56006;BME280;41888;44.696;10.522;2022-12-18T01:27:33;101702.44;;;5.89;100.00
56006;BME280;41888;44.696;10.522;2022-12-18T01:29:59;101697.44;;;5.96;100.00
56006;BME280;41888;44.696;10.522;2022-12-18T01:32:25;101703.56;;;5.97;100.00
56006;BME280;41888;44.696;10.522;2022-12-18T01:34:51;101714.25;;;5.95;100.00
56006;BME280;41888;44.696;10.522;2022-12-18T01:37:18;101711.75;;;5.93;100.00
56006;BME280;41888;44.696;10.522;2022-12-18T01:39:44;101716.19;;;5.93;100.00
56006;BME280;41888;44.696;10.522;2022-12-18T01:42:15;101720.81;;;5.91;100.00
56006;BME280;41888;44.696;10.522;2022-12-18T01:47:52;101729.97;;;5.87;100.00
56006;BME280;41888;44.696;10.522;2022-12-18T01:50:34;101732.47;;;5.88;100.00
56006;BME280;41888;44.696;10.522;2022-12-18T01:53:15;101734.28;;;5.88;100.00
56006;BME280;41888;44.696;10.522;2022-12-18T01:55:59;101740.28;;;5.90;100.00
56006;BME280;41888;44.696;10.522;2022-12-18T02:01:24;101749.88;;;5.91;100.00
56006;BME280;41888;44.696;10.522;2022-12-18T02:03:51;101760.00;;;5.86;100.00
56006;BME280;41888;44.696;10.522;2022-12-18T02:06:34;101764.44;;;5.85;100.00
56006;BME280;41888;44.696;10.522;2022-12-18T02:09:07;101769.03;;;5.74;100.00
56006;BME280;41888;44.696;10.522;2022-12-18T02:12:13;101772.63;;;5.73;100.00
56006;BME280;41888;44.696;10.522;2022-12-18T02:14:45;101775.56;;;5.70;100.00
56006;BME280;41888;44.696;10.522;2022-12-18T02:17:20;101782.53;;;5.71;100.00
56006;BME280;41888;44.696;10.522;2022-12-18T02:28:41;101804.63;;;5.70;100.00
56006;BME280;41888;44.696;10.522;2022-12-18T02:31:11;101798.38;;;5.71;100.00
56006;BME280;41888;44.696;10.522;2022-12-18T02:33:41;101797.66;;;5.69;100.00
56006;BME280;41888;44.696;10.522;2022-12-18T02:36:10;101804.22;;;5.65;100.00
56006;BME280;41888;44.696;10.522;2022-12-18T02:38:37;101799.19;;;5.62;100.00
56006;BME280;41888;44.696;10.522;2022-12-18T02:41:06;101801.16;;;5.60;100.00
56006;BME280;41888;44.696;10.522;2022-12-18T02:43:32;101809.34;;;5.57;100.00
56006;BME280;41888;44.696;10.522;2022-12-18T02:46:00;101811.28;;;5.55;100.00
56006;BME280;41888;44.696;10.522;2022-12-18T02:48:46;101810.47;;;5.64;100.00
56006;BME280;41888;44.696;10.522;2022-12-18T02:53:53;101812.81;;;5.67;100.00
56006;BME280;41888;44.696;10.522;2022-12-18T02:56:30;101804.31;;;5.73;100.00
56006;BME280;41888;44.696;10.522;2022-12-18T02:59:09;101812.53;;;5.60;100.00
56006;BME280;41888;44.696;10.522;2022-12-18T03:01:57;101806.69;;;5.57;100.00
56006;BME280;41888;44.696;10.522;2022-12-18T03:04:29;101803.75;;;5.50;100.00
56006;BME280;41888;44.696;10.522;2022-12-18T03:06:59;101806.56;;;5.48;100.00
56006;BME280;41888;44.696;10.522;2022-12-18T03:09:32;101816.69;;;5.43;100.00
56006;BME280;41888;44.696;10.522;2022-12-18T03:12:32;101808.78;;;5.43;100.00
56006;BME280;41888;44.696;10.522;2022-12-18T03:15:05;101812.81;;;5.38;100.00
56006;BME280;41888;44.696;10.522;2022-12-18T03:17:33;101821.13;;;5.33;100.00
56006;BME280;41888;44.696;10.522;2022-12-18T03:20:05;101814.72;;;5.26;100.00
56006;BME280;41888;44.696;10.522;2022-12-18T03:22:34;101815.81;;;5.24;100.00
56006;BME280;41888;44.696;10.522;2022-12-18T03:25:04;101820.66;;;5.19;100.00
56006;BME280;41888;44.696;10.522;2022-12-18T03:27:34;101818.03;;;5.19;100.00
56006;BME280;41888;44.696;10.522;2022-12-18T03:30:08;101822.19;;;5.12;100.00
56006;BME280;41888;44.696;10.522;2022-12-18T03:32:50;101825.25;;;5.07;100.00
56006;BME280;41888;44.696;10.522;2022-12-18T03:35:24;101828.44;;;5.01;100.00
56006;BME280;41888;44.696;10.522;2022-12-18T03:37:52;101841.88;;;4.98;100.00
56006;BME280;41888;44.696;10.522;2022-12-18T03:40:25;101840.91;;;4.99;100.00
56006;BME280;41888;44.696;10.522;2022-12-18T03:43:05;101837.81;;;4.94;100.00
56006;BME280;41888;44.696;10.522;2022-12-18T03:45:37;101838.09;;;4.91;100.00
56006;BME280;41888;44.696;10.522;2022-12-18T03:51:05;101837.50;;;4.78;100.00
56006;BME280;41888;44.696;10.522;2022-12-18T03:54:12;101838.00;;;4.72;100.00
56006;BME280;41888;44.696;10.522;2022-12-18T03:56:34;101840.53;;;4.73;100.00
56006;BME280;41888;44.696;10.522;2022-12-18T03:59:04;101854.94;;;4.69;100.00
56006;BME280;41888;44.696;10.522;2022-12-18T04:01:41;101857.97;;;4.64;100.00
56006;BME280;41888;44.696;10.522;2022-12-18T04:04:10;101852.16;;;4.71;100.00
56006;BME280;41888;44.696;10.522;2022-12-18T04:06:39;101864.25;;;4.73;100.00
56006;BME280;41888;44.696;10.522;2022-12-18T04:09:06;101877.84;;;4.68;100.00
56006;BME280;41888;44.696;10.522;2022-12-18T04:11:33;101883.34;;;4.65;100.00
56006;BME280;41888;44.696;10.522;2022-12-18T04:13:59;101884.47;;;4.63;100.00
56006;BME280;41888;44.696;10.522;2022-12-18T04:16:26;101893.34;;;4.62;100.00
56006;BME280;41888;44.696;10.522;2022-12-18T04:18:53;101899.72;;;4.59;100.00
56006;BME280;41888;44.696;10.522;2022-12-18T04:21:20;101899.72;;;4.59;100.00
56006;BME280;41888;44.696;10.522;2022-12-18T04:23:46;101887.22;;;4.61;100.00
56006;BME280;41888;44.696;10.522;2022-12-18T04:26:12;101898.44;;;4.54;100.00
56006;BME280;41888;44.696;10.522;2022-12-18T04:28:38;101903.94;;;4.51;100.00
56006;BME280;41888;44.696;10.522;2022-12-18T04:31:05;101893.81;;;4.46;100.00
56006;BME280;41888;44.696;10.522;2022-12-18T04:33:31;101896.31;;;4.48;100.00
56006;BME280;41888;44.696;10.522;2022-12-18T04:35:58;101908.81;;;4.55;100.00
56006;BME280;41888;44.696;10.522;2022-12-18T04:38:24;101911.16;;;4.49;100.00
56006;BME280;41888;44.696;10.522;2022-12-18T04:40:50;101921.84;;;4.47;100.00
56006;BME280;41888;44.696;10.522;2022-12-18T04:43:16;101922.66;;;4.48;100.00
56006;BME280;41888;44.696;10.522;2022-12-18T04:45:42;101921.84;;;4.47;100.00
56006;BME280;41888;44.696;10.522;2022-12-18T04:48:09;101927.88;;;4.38;100.00
56006;BME280;41888;44.696;10.522;2022-12-18T04:50:35;101924.47;;;4.47;100.00
56006;BME280;41888;44.696;10.522;2022-12-18T04:53:01;101924.28;;;4.60;100.00
56006;BME280;41888;44.696;10.522;2022-12-18T04:55:28;101932.31;;;4.58;100.00
56006;BME280;41888;44.696;10.522;2022-12-18T04:57:54;101930.69;;;4.46;100.00
56006;BME280;41888;44.696;10.522;2022-12-18T05:00:21;101931.66;;;4.45;100.00
56006;BME280;41888;44.696;10.522;2022-12-18T05:02:47;101927.88;;;4.38;100.00
56006;BME280;41888;44.696;10.522;2022-12-18T05:05:14;101940.84;;;4.30;100.00
56006;BME280;41888;44.696;10.522;2022-12-18T05:07:40;101942.50;;;4.31;100.00
56006;BME280;41888;44.696;10.522;2022-12-18T05:10:06;101946.81;;;4.32;100.00
56006;BME280;41888;44.696;10.522;2022-12-18T05:12:33;101947.44;;;4.24;100.00
56006;BME280;41888;44.696;10.522;2022-12-18T05:14:59;101952.38;;;4.18;100.00
56006;BME280;41888;44.696;10.522;2022-12-18T05:17:25;101949.75;;;4.18;100.00
56006;BME280;41888;44.696;10.522;2022-12-18T05:19:51;101957.34;;;4.11;100.00
56006;BME280;41888;44.696;10.522;2022-12-18T05:22:17;101955.88;;;4.07;100.00
56006;BME280;41888;44.696;10.522;2022-12-18T05:24:43;101952.97;;;3.90;100.00
56006;BME280;41888;44.696;10.522;2022-12-18T05:27:10;101958.28;;;4.10;100.00
56006;BME280;41888;44.696;10.522;2022-12-18T05:29:36;101964.44;;;4.00;100.00
56006;BME280;41888;44.696;10.522;2022-12-18T05:32:02;101969.47;;;3.92;100.00
56006;BME280;41888;44.696;10.522;2022-12-18T05:34:28;101969.00;;;3.87;100.00
56006;BME280;41888;44.696;10.522;2022-12-18T05:36:54;101971.28;;;3.91;100.00
56006;BME280;41888;44.696;10.522;2022-12-18T05:39:20;101983.38;;;3.94;100.00
56006;BME280;41888;44.696;10.522;2022-12-18T05:41:47;101985.06;;;3.83;100.00
56006;BME280;41888;44.696;10.522;2022-12-18T05:44:13;101987.81;;;3.71;100.00
56006;BME280;41888;44.696;10.522;2022-12-18T05:46:39;101994.66;;;3.73;100.00
56006;BME280;41888;44.696;10.522;2022-12-18T05:49:05;102001.47;;;3.76;100.00
56006;BME280;41888;44.696;10.522;2022-12-18T05:51:31;102007.56;;;3.65;100.00
56006;BME280;41888;44.696;10.522;2022-12-18T05:53:57;102015.94;;;3.70;100.00
56006;BME280;41888;44.696;10.522;2022-12-18T05:56:23;102007.56;;;3.65;100.00
56006;BME280;41888;44.696;10.522;2022-12-18T05:58:54;102000.41;;;3.67;100.00
56006;BME280;41888;44.696;10.522;2022-12-18T06:01:24;102001.72;;;3.73;100.00
56006;BME280;41888;44.696;10.522;2022-12-18T06:03:50;102006.13;;;3.72;100.00
56006;BME280;41888;44.696;10.522;2022-12-18T06:06:21;102008.41;;;3.55;100.00
56006;BME280;41888;44.696;10.522;2022-12-18T06:08:48;102017.50;;;3.73;100.00
56006;BME280;41888;44.696;10.522;2022-12-18T06:11:18;102027.09;;;3.74;100.00
56006;BME280;41888;44.696;10.522;2022-12-18T06:13:45;102024.94;;;3.57;100.00
56006;BME280;41888;44.696;10.522;2022-12-18T06:16:12;102020.25;;;3.71;100.00
56006;BME280;41888;44.696;10.522;2022-12-18T06:18:38;102025.88;;;3.67;100.00
56006;BME280;41888;44.696;10.522;2022-12-18T06:21:05;102025.88;;;3.67;100.00
56006;BME280;41888;44.696;10.522;2022-12-18T06:23:31;102041.47;;;3.59;100.00
56006;BME280;41888;44.696;10.522;2022-12-18T06:25:57;102041.22;;;3.62;100.00
56006;BME280;41888;44.696;10.522;2022-12-18T06:28:23;102041.69;;;3.67;100.00
56006;BME280;41888;44.696;10.522;2022-12-18T06:30:49;102052.22;;;3.67;100.00
56006;BME280;41888;44.696;10.522;2022-12-18T06:33:16;102046.47;;;3.73;100.00
56006;BME280;41888;44.696;10.522;2022-12-18T06:35:42;102054.38;;;3.73;100.00
56006;BME280;41888;44.696;10.522;2022-12-18T06:38:09;102061.06;;;3.66;100.00
56006;BME280;41888;44.696;10.522;2022-12-18T06:40:37;102065.00;;;3.71;100.00
56006;BME280;41888;44.696;10.522;2022-12-18T06:43:05;102063.22;;;3.72;100.00
56006;BME280;41888;44.696;10.522;2022-12-18T06:45:31;102065.84;;;3.72;100.00
56006;BME280;41888;44.696;10.522;2022-12-18T06:47:57;102068.94;;;3.77;100.00
56006;BME280;41888;44.696;10.522;2022-12-18T06:50:23;102077.94;;;3.86;100.00
56006;BME280;41888;44.696;10.522;2022-12-18T06:52:49;102077.47;;;3.80;100.00
56006;BME280;41888;44.696;10.522;2022-12-18T06:55:15;102082.22;;;3.75;100.00
56006;BME280;41888;44.696;10.522;2022-12-18T06:57:41;102079.84;;;3.83;100.00
56006;BME280;41888;44.696;10.522;2022-12-18T07:00:08;102088.94;;;3.79;100.00
56006;BME280;41888;44.696;10.522;2022-12-18T07:02:35;102095.16;;;3.78;100.00
56006;BME280;41888;44.696;10.522;2022-12-18T07:05:01;102101.13;;;3.92;100.00
56006;BME280;41888;44.696;10.522;2022-12-18T07:07:27;102108.31;;;3.78;100.00
56006;BME280;41888;44.696;10.522;2022-12-18T07:09:53;102108.53;;;3.75;100.00
56006;BME280;41888;44.696;10.522;2022-12-18T07:12:20;102108.31;;;3.78;100.00
56006;BME280;41888;44.696;10.522;2022-12-18T07:14:46;102106.66;;;3.77;100.00
56006;BME280;41888;44.696;10.522;2022-12-18T07:17:12;102107.25;;;3.70;100.00
56006;BME280;41888;44.696;10.522;2022-12-18T07:19:38;102117.91;;;3.68;100.00
56006;BME280;41888;44.696;10.522;2022-12-18T07:22:04;102107.13;;;3.60;100.00
56006;BME280;41888;44.696;10.522;2022-12-18T07:24:32;102116.69;;;3.61;100.00
56006;BME280;41888;44.696;10.522;2022-12-18T07:26:58;102120.53;;;3.57;100.00
56006;BME280;41888;44.696;10.522;2022-12-18T07:29:25;102120.91;;;3.64;100.00
56006;BME280;41888;44.696;10.522;2022-12-18T07:31:51;102125.31;;;3.63;100.00
56006;BME280;41888;44.696;10.522;2022-12-18T07:34:17;102132.13;;;3.66;100.00
56006;BME280;41888;44.696;10.522;2022-12-18T07:36:43;102134.75;;;3.66;100.00
56006;BME280;41888;44.696;10.522;2022-12-18T07:39:11;102148.41;;;3.71;100.00
56006;BME280;41888;44.696;10.522;2022-12-18T07:41:37;102141.13;;;3.74;100.00
56006;BME280;41888;44.696;10.522;2022-12-18T07:44:04;102135.25;;;3.82;100.00
56006;BME280;41888;44.696;10.522;2022-12-18T07:46:30;102149.97;;;3.85;100.00
56006;BME280;41888;44.696;10.522;2022-12-18T07:48:56;102147.09;;;3.88;100.00
56006;BME280;41888;44.696;10.522;2022-12-18T07:51:22;102147.34;;;3.85;100.00
56006;BME280;41888;44.696;10.522;2022-12-18T07:53:49;102149.72;;;3.88;100.00
56006;BME280;41888;44.696;10.522;2022-12-18T07:56:15;102150.69;;;3.98;100.00
56006;BME280;41888;44.696;10.522;2022-12-18T07:58:41;102160.53;;;3.96;100.00
56006;BME280;41888;44.696;10.522;2022-12-18T08:01:09;102168.63;;;4.04;100.00
56006;BME280;41888;44.696;10.522;2022-12-18T08:03:37;102173.44;;;4.10;100.00
56006;BME280;41888;44.696;10.522;2022-12-18T08:06:05;102179.19;;;4.15;100.00
56006;BME280;41888;44.696;10.522;2022-12-18T08:08:33;102187.09;;;4.15;100.00
56006;BME280;41888;44.696;10.522;2022-12-18T08:11:00;102186.72;;;4.19;100.00
56006;BME280;41888;44.696;10.522;2022-12-18T08:13:27;102193.66;;;4.20;100.00
56006;BME280;41888;44.696;10.522;2022-12-18T08:16:02;102200.25;;;4.26;100.00
56006;BME280;41888;44.696;10.522;2022-12-18T08:18:28;102202.88;;;4.26;100.00
56006;BME280;41888;44.696;10.522;2022-12-18T08:20:55;102202.03;;;4.25;100.00
56006;BME280;41888;44.696;10.522;2022-12-18T08:23:21;102208.88;;;4.28;100.00
56006;BME280;41888;44.696;10.522;2022-12-18T08:25:47;102227.91;;;4.09;100.00
56006;BME280;41888;44.696;10.522;2022-12-18T08:28:17;102218.22;;;4.21;100.00
56006;BME280;41888;44.696;10.522;2022-12-18T08:30:43;102220.13;;;4.30;100.00
56006;BME280;41888;44.696;10.522;2022-12-18T08:33:09;102229.81;;;4.41;100.00
56006;BME280;41888;44.696;10.522;2022-12-18T08:35:36;102242.41;;;4.37;100.00
56006;BME280;41888;44.696;10.522;2022-12-18T08:38:03;102239.88;;;4.47;100.00
56006;BME280;41888;44.696;10.522;2022-12-18T08:40:29;102252.94;;;4.59;100.00
56006;BME280;41888;44.696;10.522;2022-12-18T08:42:56;102253.28;;;4.66;100.00
56006;BME280;41888;44.696;10.522;2022-12-18T08:45:40;102244.19;;;4.70;100.00
56006;BME280;41888;44.696;10.522;2022-12-18T08:48:06;102242.25;;;4.72;100.00
56006;BME280;41888;44.696;10.522;2022-12-18T08:50:32;102248.22;;;4.85;100.00
56006;BME280;41888;44.696;10.522;2022-12-18T08:52:59;102253.72;;;4.93;100.00
56006;BME280;41888;44.696;10.522;2022-12-18T08:55:25;102255.38;;;4.94;100.00
56006;BME280;41888;44.696;10.522;2022-12-18T08:57:51;102248.81;;;4.89;100.00
56006;BME280;41888;44.696;10.522;2022-12-18T09:00:17;102264.38;;;4.92;100.00
56006;BME280;41888;44.696;10.522;2022-12-18T09:02:44;102258.88;;;4.95;100.00
56006;BME280;41888;44.696;10.522;2022-12-18T09:05:10;102268.47;;;4.96;100.00
56006;BME280;41888;44.696;10.522;2022-12-18T09:07:36;102273.28;;;4.91;100.00
56006;BME280;41888;44.696;10.522;2022-12-18T09:10:03;102272.06;;;4.95;100.00
56006;BME280;41888;44.696;10.522;2022-12-18T09:12:29;102275.66;;;4.83;100.00
56006;BME280;41888;44.696;10.522;2022-12-18T09:14:55;102275.09;;;4.79;100.00
56006;BME280;41888;44.696;10.522;2022-12-18T09:17:22;102282.53;;;4.74;100.00
56006;BME280;41888;44.696;10.522;2022-12-18T09:19:48;102287.91;;;4.73;100.00
56006;BME280;41888;44.696;10.522;2022-12-18T09:22:15;102290.91;;;4.79;100.00
56006;BME280;41888;44.696;10.522;2022-12-18T09:24:41;102287.16;;;4.82;100.00
56006;BME280;41888;44.696;10.522;2022-12-18T09:27:07;102284.31;;;4.85;100.00
56006;BME280;41888;44.696;10.522;2022-12-18T09:29:34;102290.91;;;4.79;100.00
56006;BME280;41888;44.696;10.522;2022-12-18T09:32:00;102294.13;;;4.72;100.00
56006;BME280;41888;44.696;10.522;2022-12-18T09:34:26;102284.06;;;4.65;100.00
56006;BME280;41888;44.696;10.522;2022-12-18T09:36:52;102286.22;;;4.72;100.00
56006;BME280;41888;44.696;10.522;2022-12-18T09:39:18;102282.41;;;4.76;100.00
56006;BME280;41888;44.696;10.522;2022-12-18T09:41:52;102284.81;;;4.67;100.00
56006;BME280;41888;44.696;10.522;2022-12-18T09:44:29;102268.72;;;4.71;100.00
56006;BME280;41888;44.696;10.522;2022-12-18T09:49:56;102272.56;;;4.78;100.00
56006;BME280;41888;44.696;10.522;2022-12-18T09:55:24;102263.41;;;4.93;100.00
56006;BME280;41888;44.696;10.522;2022-12-18T09:58:04;102269.66;;;4.92;100.00
56006;BME280;41888;44.696;10.522;2022-12-18T10:00:31;102258.88;;;4.95;100.00
56006;BME280;41888;44.696;10.522;2022-12-18T10:03:11;102259.44;;;4.98;100.00
56006;BME280;41888;44.696;10.522;2022-12-18T10:13:56;102259.25;;;5.54;100.00
56006;BME280;41888;44.696;10.522;2022-12-18T10:21:54;102262.88;;;5.74;100.00
56006;BME280;41888;44.696;10.522;2022-12-18T10:24:47;102264.28;;;5.78;100.00
56006;BME280;41888;44.696;10.522;2022-12-18T10:27:18;102260.66;;;5.90;100.00
56006;BME280;41888;44.696;10.522;2022-12-18T10:29:48;102253.47;;;5.81;100.00
56006;BME280;41888;44.696;10.522;2022-12-18T10:32:20;102263.91;;;6.03;100.00
56006;BME280;41888;44.696;10.522;2022-12-18T10:34:51;102256.81;;;6.04;100.00
56006;BME280;41888;44.696;10.522;2022-12-18T10:37:20;102256.97;;;6.32;100.00
56006;BME280;41888;44.696;10.522;2022-12-18T10:40:04;102253.03;;;6.57;100.00
56006;BME280;41888;44.696;10.522;2022-12-18T10:42:33;102256.63;;;6.56;100.00
56006;BME280;41888;44.696;10.522;2022-12-18T10:45:12;102262.13;;;6.64;100.00
56006;BME280;41888;44.696;10.522;2022-12-18T10:47:57;102261.09;;;6.56;100.00
56006;BME280;41888;44.696;10.522;2022-12-18T10:50:30;102256.38;;;6.50;100.00
56006;BME280;41888;44.696;10.522;2022-12-18T10:52:59;102257.31;;;6.98;100.00
56006;BME280;41888;44.696;10.522;2022-12-18T10:55:32;102261.22;;;8.37;100.00
56006;BME280;41888;44.696;10.522;2022-12-18T11:01:06;102267.75;;;10.37;100.00
56006;BME280;41888;44.696;10.522;2022-12-18T11:03:47;102264.94;;;10.73;100.00
56006;BME280;41888;44.696;10.522;2022-12-18T11:06:25;102266.50;;;10.49;100.00
56006;BME280;41888;44.696;10.522;2022-12-18T11:09:03;102268.13;;;10.84;100.00
56006;BME280;41888;44.696;10.522;2022-12-18T11:11:30;102260.91;;;11.19;100.00
56006;BME280;41888;44.696;10.522;2022-12-18T11:16:51;102262.78;;;10.84;100.00
56006;BME280;41888;44.696;10.522;2022-12-18T11:19:38;102274.72;;;10.30;100.00
56006;BME280;41888;44.696;10.522;2022-12-18T11:25:16;102278.53;;;10.10;100.00
56006;BME280;41888;44.696;10.522;2022-12-18T11:27:49;102266.50;;;9.54;100.00
56006;BME280;41888;44.696;10.522;2022-12-18T11:30:25;102260.38;;;8.73;100.00
56006;BME280;41888;44.696;10.522;2022-12-18T11:33:10;102261.31;;;8.55;100.00
56006;BME280;41888;44.696;10.522;2022-12-18T11:35:59;102255.03;;;8.46;100.00
56006;BME280;41888;44.696;10.522;2022-12-18T11:38:40;102254.50;;;8.42;100.00
56006;BME280;41888;44.696;10.522;2022-12-18T11:42:01;102251.81;;;8.79;100.00
56006;BME280;41888;44.696;10.522;2022-12-18T11:44:41;102247.75;;;9.38;100.00
56006;BME280;41888;44.696;10.522;2022-12-18T11:47:54;102252.88;;;10.01;100.00
56006;BME280;41888;44.696;10.522;2022-12-18T11:50:03;102249.41;;;11.18;100.00
56006;BME280;41888;44.696;10.522;2022-12-18T11:52:39;102243.56;;;11.23;100.00
56006;BME280;41888;44.696;10.522;2022-12-18T11:55:19;102235.72;;;11.05;100.00
56006;BME280;41888;44.696;10.522;2022-12-18T12:00:25;102247.06;;;12.20;100.00
56006;BME280;41888;44.696;10.522;2022-12-18T12:06:00;102241.09;;;10.63;100.00
56006;BME280;41888;44.696;10.522;2022-12-18T12:09:40;102252.47;;;10.39;100.00
56006;BME280;41888;44.696;10.522;2022-12-18T12:22:18;102243.78;;;11.78;100.00
56006;BME280;41888;44.696;10.522;2022-12-18T12:41:04;102236.09;;;13.76;90.68
56006;BME280;41888;44.696;10.522;2022-12-18T12:46:10;102236.97;;;13.54;89.97
56006;BME280;41888;44.696;10.522;2022-12-18T12:48:58;102245.09;;;13.38;89.79
56006;BME280;41888;44.696;10.522;2022-12-18T12:51:40;102236.28;;;13.15;92.88
56006;BME280;41888;44.696;10.522;2022-12-18T12:54:17;102244.00;;;12.70;95.57
56006;BME280;41888;44.696;10.522;2022-12-18T12:59:48;102237.16;;;12.37;98.15
56006;BME280;41888;44.696;10.522;2022-12-18T13:08:03;102232.75;;;11.65;100.00
56006;BME280;41888;44.696;10.522;2022-12-18T13:10:40;102225.03;;;10.81;100.00
56006;BME280;41888;44.696;10.522;2022-12-18T13:13:11;102227.22;;;10.93;100.00
56006;BME280;41888;44.696;10.522;2022-12-18T13:16:03;102217.81;;;10.23;100.00
56006;BME280;41888;44.696;10.522;2022-12-18T13:18:30;102219.66;;;9.53;100.00
56006;BME280;41888;44.696;10.522;2022-12-18T13:23:27;102213.25;;;8.58;100.00
56006;BME280;41888;44.696;10.522;2022-12-18T13:26:28;102209.34;;;8.34;100.00
56006;BME280;41888;44.696;10.522;2022-12-18T13:36:35;102206.41;;;9.36;100.00
56006;BME280;41888;44.696;10.522;2022-12-18T13:41:44;102211.69;;;9.53;100.00
56006;BME280;41888;44.696;10.522;2022-12-18T13:44:28;102214.91;;;9.39;100.00
56006;BME280;41888;44.696;10.522;2022-12-18T13:46:56;102223.63;;;9.31;100.00
56006;BME280;41888;44.696;10.522;2022-12-18T13:49:49;102224.31;;;8.98;100.00
56006;BME280;41888;44.696;10.522;2022-12-18T13:52:19;102226.75;;;8.64;100.00
56006;BME280;41888;44.696;10.522;2022-12-18T13:54:59;102219.44;;;8.48;100.00
56006;BME280;41888;44.696;10.522;2022-12-18T13:57:32;102218.59;;;8.48;100.00
56006;BME280;41888;44.696;10.522;2022-12-18T14:02:49;102219.50;;;8.66;100.00
56006;BME280;41888;44.696;10.522;2022-12-18T14:05:33;102217.63;;;8.49;100.00
56006;BME280;41888;44.696;10.522;2022-12-18T14:08:05;102211.53;;;8.66;100.00
56006;BME280;41888;44.696;10.522;2022-12-18T14:10:32;102218.53;;;8.30;100.00
56006;BME280;41888;44.696;10.522;2022-12-18T14:13:06;102224.84;;;8.20;100.00
56006;BME280;41888;44.696;10.522;2022-12-18T14:15:34;102221.91;;;8.23;100.00
56006;BME280;41888;44.696;10.522;2022-12-18T14:20:45;102226.28;;;8.14;100.00
56006;BME280;41888;44.696;10.522;2022-12-18T14:23:45;102224.81;;;7.92;100.00
56006;BME280;41888;44.696;10.522;2022-12-18T14:26:22;102218.44;;;7.66;100.00
56006;BME280;41888;44.696;10.522;2022-12-18T14:28:49;102213.97;;;7.57;100.00
56006;BME280;41888;44.696;10.522;2022-12-18T14:31:26;102220.84;;;7.31;100.00
56006;BME280;41888;44.696;10.522;2022-12-18T14:33:53;102215.13;;;7.06;100.00
56006;BME280;41888;44.696;10.522;2022-12-18T14:36:27;102207.19;;;7.06;100.00
56006;BME280;41888;44.696;10.522;2022-12-18T14:38:56;102217.66;;;7.17;100.00
56006;BME280;41888;44.696;10.522;2022-12-18T14:41:23;102208.28;;;6.94;100.00
56006;BME280;41888;44.696;10.522;2022-12-18T14:43:51;102208.03;;;6.97;100.00
56006;BME280;41888;44.696;10.522;2022-12-18T14:46:37;102209.66;;;6.89;100.00
56006;BME280;41888;44.696;10.522;2022-12-18T14:49:23;102218.00;;;6.74;100.00